Flight Track Log - Related Links

Times and Time Zones

All times are in EDT time to prevent confusion due to time zone crossing. See the GLF55 flight status page for this flight to view local times or setup timezone preferences in your user account.

Time Position Orientation Groundspeed Altitude Reporting Facility
EDT Latitude Longitude Course Direction KTS MPH feet Rate Location/Type
Mon 11:46:36 AM 32.0639 -81.2453 North 200 230 3,100  Level Jacksonville Center
Mon 11:47:36 AM 32.0900 -81.3231 292° West 195 224 6,400 3,600 Climbing Jacksonville Center
Mon 11:48:36 AM 32.1286 -81.4158 296° West 274 315 10,300 2,700 Climbing Jacksonville Center
Mon 11:49:36 AM 32.1319 -81.5139 272° West 332 382 11,800 2,300 Climbing Jacksonville Center
Mon 11:50:36 AM 32.1375 -81.6486 273° West 363 418 14,900 2,517 Climbing Jacksonville Center
Mon 11:51:00 AM 32.1276 -81.2021 North  Level Estimated
Mon 11:52:30 AM 32.1494 -81.8900 273° West 388 447 19,100  Level Atlanta Center
Mon 11:53:30 AM 32.1497 -82.0225 270° West 401 461 21,200 2,100 Climbing Atlanta Center
Mon 11:54:30 AM 32.1539 -82.1597 272° West 414 476 23,300 1,950 Climbing Atlanta Center
Mon 11:55:30 AM 32.1581 -82.2994 272° West 422 486 25,100 1,650 Climbing Atlanta Center
Mon 11:56:30 AM 32.1619 -82.4442 272° West 433 498 26,600 1,750 Climbing Atlanta Center
Mon 11:57:30 AM 32.1658 -82.5914 272° West 444 511 28,600 2,300 Climbing Atlanta Center
Mon 11:58:30 AM 32.1717 -82.7358 273° West 444 511 31,200 2,350 Climbing Atlanta Center
Mon 11:59:30 AM 32.1753 -82.8758 272° West 437 503 33,300 2,050 Climbing Atlanta Center
Mon 12:00:30 PM 32.1786 -83.0131 272° West 432 497 35,300 1,850 Climbing Atlanta Center
Mon 12:01:30 PM 32.1839 -83.1506 273° West 426 490 37,000 850 Climbing Atlanta Center
Mon 12:02:30 PM 32.1847 -83.2878 270° West 421 484 37,000 550 Level Atlanta Center
Mon 12:03:30 PM 32.1897 -83.4253 272° West 421 484 38,100 1,500 Climbing Atlanta Center
Mon 12:04:30 PM 32.1944 -83.5481 273° West 421 484 40,000 950 Climbing Atlanta Center
Mon 12:05:30 PM 32.1969 -83.6806 271° West 416 479 40,000  Level Atlanta Center
Mon 12:06:30 PM 32.1972 -83.8203 270° West 421 484 40,000  Level Atlanta Center
Mon 12:07:30 PM 32.2017 -83.9678 272° West 434 499 40,000 100 Level Atlanta Center
Mon 12:08:30 PM 32.2036 -84.1100 271° West 439 505 40,200 450 Climbing Atlanta Center
Mon 12:09:30 PM 32.2078 -84.2550 272° West 439 505 40,900 400 Climbing Atlanta Center
Mon 12:10:30 PM 32.2075 -84.3972 270° West 439 505 41,000 50 Climbing Atlanta Center
Mon 12:11:30 PM 32.2111 -84.5372 272° West 439 505 41,000  Level Atlanta Center
Mon 12:12:30 PM 32.2125 -84.6819 271° West 439 505 41,000  Level Atlanta Center
Mon 12:13:30 PM 32.2117 -84.8244 270° West 439 505 41,000  Level Atlanta Center
Mon 12:14:30 PM 32.2128 -84.9667 271° West 439 505 41,000  Level Atlanta Center
Mon 12:15:30 PM 32.2158 -85.1117 271° West 439 505 41,000  Level Atlanta Center
Mon 12:16:30 PM 32.2144 -85.2664 269° West 439 505 41,000  Level Atlanta Center
Mon 12:17:30 PM 32.2169 -85.4111 271° West 439 505 41,000  Level Atlanta Center
Mon 12:18:30 PM 32.2194 -85.5561 271° West 439 505 41,000 -50 Level Atlanta Center
Mon 12:19:30 PM 32.2197 -85.6986 270° West 439 505 40,900 -400 Descending Atlanta Center
Mon 12:20:30 PM 32.2200 -85.8311 270° West 444 511 40,200 -450 Descending Atlanta Center
Mon 12:21:30 PM 32.2175 -85.9881 269° West 439 505 40,000 -100 Descending Atlanta Center
Mon 12:22:30 PM 32.2258 -86.1183 274° West 439 505 40,000  Level Atlanta Center
Mon 12:23:30 PM 32.2233 -86.2583 269° West 445 512 40,000  Level Atlanta Center
Mon 12:24:30 PM 32.1772 -86.3922 248° West 444 511 40,000  Level Atlanta Center
Mon 12:25:30 PM 32.1000 -86.5003 230° Southwest 426 490 40,000  Level Atlanta Center
Mon 12:26:30 PM 32.0225 -86.6108 230° Southwest 439 505 40,000  Level Atlanta Center
Mon 12:27:30 PM 31.9281 -86.7331 228° Southwest 454 522 40,000  Level Atlanta Center
Mon 12:28:30 PM 31.8483 -86.8431 230° Southwest 454 522 40,000  Level Atlanta Center
Mon 12:29:30 PM 31.7667 -86.9531 229° Southwest 454 522 40,000 50 Level Atlanta Center
Mon 12:30:30 PM 31.7019 -87.0411 229° Southwest 454 522 40,100 1,400 Climbing Atlanta Center
Mon 12:31:30 PM 31.5936 -87.1108 209° Southwest 417 480 42,800 1,850 Climbing Atlanta Center
Mon 12:32:30 PM 31.4886 -87.0583 157° South 377 434 43,800 950 Climbing Atlanta Center
Mon 12:33:30 PM 31.4417 -86.9206 112° Southeast 317 365 44,700 600 Climbing Atlanta Center
Mon 12:34:30 PM 31.5006 -86.8106 58° Northeast 286 329 45,000 150 Climbing Atlanta Center
Mon 12:35:30 PM 31.6061 -86.7575 23° Northeast 304 350 45,000  Level Atlanta Center
Mon 12:36:30 PM 31.7242 -86.7050 21° North 387 445 45,000  Level Atlanta Center
Mon 12:37:30 PM 31.8017 -86.5925 51° Northeast 412 474 45,000  Level Atlanta Center
Mon 12:38:30 PM 31.8172 -86.4439 83° East 414 476 45,000  Level Atlanta Center
Mon 12:39:30 PM 31.8306 -86.2903 84° East 431 496 45,000  Level Atlanta Center
Mon 12:40:30 PM 31.8436 -86.1364 84° East 455 524 45,000  Level Atlanta Center
Mon 12:41:30 PM 31.8586 -85.9828 83° East 467 537 45,000  Level Atlanta Center
Mon 12:42:30 PM 31.8714 -85.8314 84° East 467 537 45,000  Level Atlanta Center
Mon 12:43:30 PM 31.8819 -85.6728 85° East 477 549 45,000  Level Atlanta Center
Mon 12:44:30 PM 31.8922 -85.5186 85° East 477 549 45,000  Level Atlanta Center
Mon 12:45:30 PM 31.9022 -85.3672 86° East 472 543 45,000  Level Atlanta Center
Mon 12:46:30 PM 31.9142 -85.2183 85° East 467 537 45,000  Level Atlanta Center
Mon 12:47:30 PM 31.9261 -85.0692 85° East 455 524 45,000  Level Atlanta Center
Mon 12:48:30 PM 31.9356 -84.9150 86° East 461 531 45,000 -300 Level Atlanta Center
Mon 12:49:30 PM 31.9492 -84.7583 84° East 467 537 44,400 -1,150 Descending Atlanta Center
Mon 12:50:30 PM 31.9583 -84.6067 86° East 467 537 42,700 -1,850 Descending Atlanta Center
Mon 12:51:30 PM 31.9692 -84.4550 85° East 467 537 40,700 -1,950 Descending Atlanta Center
Mon 12:52:30 PM 31.9800 -84.3008 85° East 467 537 38,800 -1,950 Descending Atlanta Center
Mon 12:53:30 PM 31.9908 -84.1467 85° East 467 537 36,800 -2,300 Descending Atlanta Center
Mon 12:54:30 PM 32.0011 -83.9972 85° East 457 526 34,200 -6,400 Descending Atlanta Center
Mon 12:55:30 PM 32.0114 -83.8478 85° East 457 526 24,000 -3,050 Descending Atlanta Center
Mon 12:56:30 PM 32.0092 -83.6936 91° East 462 532 28,100 550 Climbing Atlanta Center
Mon 12:57:30 PM 31.9878 -83.5467 100° East 456 525 25,100 -1,770 Descending Atlanta Center
Mon 12:58:49 PM 31.9672 -83.3725 98° East 462 532 24,000 -1,348 Descending Jacksonville Center
Mon 12:59:48 PM 31.9783 -83.2183 85° East 430 495 22,000 -2,300 Descending Jacksonville Center
Mon 01:00:49 PM 32.0078 -83.0836 76° East 430 495 19,400 -5,455 Descending Jacksonville Center
Mon 01:01:49 PM 32.0286 -82.9564 79° East 411 473 11,000 -2,672 Descending Jacksonville Center
Mon 01:02:48 PM 32.0456 -82.8339 81° East 396 456 14,100 151 Climbing Jacksonville Center
Mon 01:03:48 PM 32.0661 -82.7161 78° East 376 433 11,300 -1,537 Descending Jacksonville Center
Mon 01:04:49 PM 32.0847 -82.6008 79° East 362 417 11,000 -149 Descending Jacksonville Center
Mon 01:05:49 PM 32.1011 -82.4831 81° East 362 417 11,000  Level Jacksonville Center
Mon 01:06:48 PM 32.1194 -82.3678 79° East 357 411 11,000  Level Jacksonville Center
Mon 01:07:49 PM 32.1378 -82.2497 80° East 357 411 11,000  Level Jacksonville Center
Mon 01:08:48 PM 32.1539 -82.1319 81° East 357 411 11,000 -50 Level Jacksonville Center
Mon 01:09:48 PM 32.1697 -82.0286 80° East 351 404 10,900 -99 Descending Jacksonville Center
Mon 01:10:49 PM 32.1919 -81.9008 78° East 359 413 10,800 -1,000 Descending Jacksonville Center
Mon 01:11:48 PM 32.2183 -81.7997 73° East 327 376 8,900 -1,765 Descending Jacksonville Center
Mon 01:12:48 PM 32.2383 -81.7111 75° East 285 328 7,300 -1,636 Descending Jacksonville Center
Mon 01:13:49 PM 32.2375 -81.6203 91° East 275 316 5,600 -1,636 Descending Jacksonville Center
Mon 01:14:49 PM 32.2322 -81.5294 94° East 270 311 4,000 -800 Descending Jacksonville Center
Mon 01:15:49 PM 32.2272 -81.4436 94° East 270 311 4,000 -500 Level Jacksonville Center
Mon 01:16:49 PM 32.2242 -81.3625 93° East 257 296 3,000 -500 Descending Jacksonville Center
Mon 01:17:49 PM 32.2233 -81.2989 91° East 224 258 3,000  Level Jacksonville Center
Mon 01:18:49 PM 32.2203 -81.2300 93° East 212 244 3,000  Level Jacksonville Center
Mon 01:20:00 PM 32.1276 -81.2021 North  Level Estimated
Mon 01:27:00 PM 32.1276 -81.2021 North  Level Estimated
Mon 01:28:00 PM 32.1276 -81.2021 North  Level Estimated
Mon 01:29:00 PM 32.1276 -81.2021 North  Level Estimated
Mon 01:30:00 PM 32.1276 -81.2021 North  Level Estimated
Mon 01:31:00 PM 32.1276 -81.2021 North  Level Estimated
Mon 01:32:00 PM 32.1276 -81.2021 North  Level Estimated
Mon 01:33:00 PM 32.1276 -81.2021 North  Level Estimated
Mon 01:34:00 PM 32.1276 -81.2021 North  Level Estimated
Mon 01:35:00 PM 32.1276 -81.2021 North  Level Estimated

Login

Don't have an account? Register now (free) for customized features, flight alerts, and more!